ZMUB/ULN METAR and TAF weather

Enter ICAO airport designator
Station Type Date Time Source
ZMUB METAR 2020/02/24 08:30 UTC NOAA

ZMUB 240830Z 29002MPS 9999 BKN100 M05/M11 Q1017 NOSIG RMK QFE655.6 53 MOP


Station Type Date Time Source
ZMUB Decoded METAR 2020/02/24 08:30 UTC NOAA

Ulan-Bator, Mongolia (ZMUB) 47-51N 106-46E
Feb 24, 2020 - 03:30 AM EST / 2020.02.24 0830 UTC
Wind: from the WNW (290 degrees) at 4 MPH (4 KT):0
Visibility: greater than 7 mile(s):0
Sky conditions: mostly cloudy
Temperature: 23 F (-5 C)
Dew Point: 12 F (-11 C)
Relative Humidity: 62%
Pressure (altimeter): 30.03 in. Hg (1017 hPa)
ob: ZMUB 240830Z 29002MPS 9999 BKN100 M05/M11 Q1017 NOSIG RMK QFE655.6 53 MOP
cycle: 8

Station Type Date Time Source
ZMUB TAF 2020/02/24 06:51 UTC NOAA

TAF TAF ZMUB 240440Z 2406/2512 VRB02MPS 9999 BKN100 TXM03/2407Z TNM14/2423Z
BECMG 2413/2415 6000 SN SCT030 SCT080
BECMG 2504/2506 9999 NSW SCT033 SCT100

Example: see airport list